Time;durP1;ratioP1;P1;durP2;ratioP2;P2;SDS_P1;SDS_P2;PMS_P1;PMS_P2;Temp;Humidity;BMP_temperature;BMP_pressure;BME280_temperature;BME280_humidity;BME280_pressure;Samples;Min_cycle;Max_cycle;Signal;HPM_P1;HPM_P2
2023/01/01 00:01:11;;;;;;;30.50;17.73;;;;;;;16.83;63.14;100665.00;5037609;28;20048;-72
2023/01/01 00:03:36;;;;;;;35.45;17.02;;;;;;;16.98;63.10;100665.41;5037010;28;20072;-71
2023/01/01 00:06:07;;;;;;;30.67;13.90;;;;;;;16.83;63.20;100668.53;5036830;28;20497;-72
2023/01/01 00:08:33;;;;;;;30.33;14.05;;;;;;;16.95;63.47;100666.53;5028202;28;20037;-72
2023/01/01 00:11:03;;;;;;;34.25;12.27;;;;;;;16.91;63.25;100662.41;5032367;28;20512;-72
2023/01/01 00:13:29;;;;;;;20.90;11.68;;;;;;;17.08;63.34;100658.16;5028490;28;20051;-72
2023/01/01 00:15:54;;;;;;;25.65;11.07;;;;;;;16.97;63.69;100661.03;5034837;28;20044;-72
2023/01/01 00:18:20;;;;;;;25.33;11.68;;;;;;;16.71;64.29;100664.25;5031348;28;20076;-71
2023/01/01 00:20:45;;;;;;;26.45;11.05;;;;;;;17.00;64.10;100676.88;5029478;28;20044;-72
2023/01/01 00:23:11;;;;;;;23.92;10.85;;;;;;;17.00;63.70;100675.03;5027252;28;20051;-71
2023/01/01 00:25:39;;;;;;;26.70;10.75;;;;;;;16.97;63.54;100664.56;5029163;28;20049;-71
2023/01/01 00:28:05;;;;;;;21.50;9.45;;;;;;;16.98;63.97;100663.56;5033905;28;20049;-71
2023/01/01 00:30:31;;;;;;;21.70;10.70;;;;;;;16.97;64.36;100666.41;5027084;28;20127;-71
2023/01/01 00:32:56;;;;;;;14.30;8.95;;;;;;;16.52;64.58;100666.94;5033823;28;20045;-72
2023/01/01 00:35:25;;;;;;;30.83;9.07;;;;;;;16.82;64.02;100676.75;5034238;28;20051;-72
2023/01/01 00:37:51;;;;;;;23.90;11.32;;;;;;;16.73;64.52;100681.16;5032903;28;20048;-72
2023/01/01 00:40:17;;;;;;;22.50;8.45;;;;;;;16.81;64.10;100672.34;5037475;28;20064;-71
2023/01/01 00:42:43;;;;;;;22.15;9.05;;;;;;;16.97;63.90;100667.25;5029914;28;20041;-71
2023/01/01 00:45:08;;;;;;;25.08;8.35;;;;;;;17.03;63.58;100673.91;5029265;28;20045;-72
2023/01/01 00:47:34;;;;;;;25.33;8.45;;;;;;;16.87;64.04;100679.88;5034303;28;20049;-72
2023/01/01 00:49:59;;;;;;;24.90;8.55;;;;;;;16.93;63.49;100683.84;5026187;28;20048;-72
2023/01/01 00:52:25;;;;;;;22.13;5.63;;;;;;;16.95;63.28;100666.53;5037911;28;20054;-71
2023/01/01 00:54:50;;;;;;;14.57;6.95;;;;;;;16.89;63.69;100664.41;5031124;28;20436;-75
2023/01/01 00:57:16;;;;;;;13.57;5.80;;;;;;;16.98;64.61;100676.19;5032975;28;20041;-72
2023/01/01 00:59:41;;;;;;;21.33;7.32;;;;;;;16.84;65.01;100666.69;5034351;28;20041;-72
2023/01/01 01:02:06;;;;;;;11.57;5.55;;;;;;;16.95;64.45;100685.38;5033650;28;20049;-72
2023/01/01 01:04:32;;;;;;;18.08;5.20;;;;;;;16.65;64.44;100686.34;5039273;28;20037;-72
2023/01/01 01:06:57;;;;;;;16.20;5.55;;;;;;;16.83;65.09;100687.38;5029390;28;20418;-71
2023/01/01 01:09:23;;;;;;;20.42;7.88;;;;;;;17.01;64.39;100690.19;5038876;28;20053;-71
2023/01/01 01:11:49;;;;;;;19.23;5.72;;;;;;;16.95;63.13;100666.53;5032476;28;20045;-71
2023/01/01 01:14:14;;;;;;;13.93;5.07;;;;;;;16.83;63.81;100687.38;5046410;28;20049;-72
2023/01/01 01:16:39;;;;;;;13.40;5.05;;;;;;;16.96;63.05;100681.69;5033016;28;20058;-72
2023/01/01 01:19:06;;;;;;;13.13;4.75;;;;;;;17.03;63.55;100682.00;5034241;28;20102;-72
2023/01/01 01:21:33;;;;;;;12.27;5.20;;;;;;;17.00;62.61;100685.81;5043304;28;20049;-72
2023/01/01 01:24:01;;;;;;;15.93;5.22;;;;;;;17.19;62.90;100692.19;5035575;28;20069;-72
2023/01/01 01:26:30;;;;;;;19.27;6.00;;;;;;;16.73;62.34;100697.31;5041959;28;20059;-72
2023/01/01 01:28:56;;;;;;;15.60;5.93;;;;;;;17.08;62.05;100703.97;5043139;28;20498;-71
2023/01/01 01:31:25;;;;;;;16.20;5.38;;;;;;;16.98;60.63;100703.13;5043068;28;20056;-71
2023/01/01 01:33:50;;;;;;;11.77;5.07;;;;;;;17.28;59.62;100697.56;5041717;28;20041;-71
2023/01/01 01:36:17;;;;;;;9.98;3.78;;;;;;;17.20;59.91;100705.50;5038580;28;20506;-72
2023/01/01 01:38:43;;;;;;;14.45;4.50;;;;;;;17.20;60.38;100708.22;5041255;28;20101;-72
2023/01/01 01:41:11;;;;;;;11.25;5.07;;;;;;;17.09;60.02;100709.22;5043669;28;20804;-71
2023/01/01 01:43:36;;;;;;;13.45;4.00;;;;;;;17.26;59.23;100714.88;5041920;28;20037;-73
2023/01/01 01:46:11;;;;;;;7.28;3.38;;;;;;;17.03;59.77;100685.53;5040064;28;20048;-72
2023/01/01 01:48:40;;;;;;;11.52;3.33;;;;;;;17.02;60.14;100708.09;5041199;28;20505;-72
2023/01/01 01:51:06;;;;;;;11.45;3.00;;;;;;;17.00;61.05;100711.91;5036933;28;20195;-72
2023/01/01 01:53:35;;;;;;;13.98;3.67;;;;;;;17.23;59.84;100710.63;5050130;28;20687;-72
2023/01/01 01:56:06;;;;;;;14.90;3.42;;;;;;;16.99;60.32;100710.22;5041062;28;20056;-71
2023/01/01 01:58:32;;;;;;;9.90;3.20;;;;;;;17.11;59.99;100706.38;5032840;28;20050;-72
2023/01/01 02:00:59;;;;;;;8.63;3.28;;;;;;;17.41;59.15;100716.13;5046316;28;20045;-71
2023/01/01 02:03:50;;;;;;;9.82;3.33;;;;;;;17.12;59.99;100724.25;5037793;28;20245;-72
2023/01/01 02:06:18;;;;;;;11.60;3.83;;;;;;;17.39;59.16;100722.66;5035129;28;20118;-72
2023/01/01 02:08:44;;;;;;;14.05;3.40;;;;;;;17.13;60.44;100715.19;5037074;28;20048;-71
2023/01/01 02:11:09;;;;;;;14.88;4.57;;;;;;;17.20;59.66;100718.13;5034064;28;20145;-71
2023/01/01 02:13:37;;;;;;;15.40;3.42;;;;;;;17.04;59.41;100730.34;5036025;28;20056;-72
2023/01/01 02:16:03;;;;;;;9.73;3.78;;;;;;;17.08;59.88;100731.75;5036259;28;20041;-72
2023/01/01 02:18:40;;;;;;;11.02;2.78;;;;;;;17.27;59.50;100738.13;5032048;28;20573;-72
2023/01/01 02:21:15;;;;;;;10.00;3.92;;;;;;;17.24;59.32;100746.50;5027770;28;20051;-72
2023/01/01 02:24:01;;;;;;;15.43;2.90;;;;;;;17.13;59.66;100739.44;5033711;28;20061;-72
2023/01/01 02:26:44;;;;;;;17.50;4.10;;;;;;;17.03;61.07;100752.03;5024767;28;20057;-72
2023/01/01 02:29:25;;;;;;;13.52;3.67;;;;;;;16.97;61.02;100768.78;5030877;28;20049;-72
2023/01/01 02:32:15;;;;;;;12.18;3.33;;;;;;;16.95;62.67;100773.44;5038287;28;20037;-72
2023/01/01 02:34:45;;;;;;;10.75;3.97;;;;;;;16.47;63.74;100783.09;5018890;28;20052;-73
2023/01/01 02:37:14;;;;;;;12.25;3.10;;;;;;;16.55;63.71;100790.47;5039145;28;20068;-72
2023/01/01 02:39:50;;;;;;;8.05;3.30;;;;;;;16.73;63.68;100774.53;5033957;28;20064;-72
2023/01/01 02:42:16;;;;;;;9.02;3.00;;;;;;;16.64;62.85;100776.19;5027462;28;20144;-71
2023/01/01 02:44:44;;;;;;;11.88;3.10;;;;;;;16.76;63.41;100753.56;5039343;28;20041;-71
2023/01/01 02:47:14;;;;;;;13.00;3.30;;;;;;;16.52;63.64;100772.75;5045110;28;20140;-71
2023/01/01 02:50:07;;;;;;;6.18;2.72;;;;;;;16.54;62.51;100765.38;5038686;28;20063;-71
2023/01/01 02:52:39;;;;;;;14.32;3.55;;;;;;;16.40;62.59;100768.47;5034576;28;20474;-72
2023/01/01 02:55:28;;;;;;;13.65;4.18;;;;;;;16.34;61.97;100766.31;5040900;28;20056;-72
2023/01/01 03:01:16;;;;;;;6.38;2.75;;;;;;;16.47;62.03;100772.31;5035259;28;20052;-71
2023/01/01 03:04:00;;;;;;;8.20;2.53;;;;;;;16.51;61.39;100764.81;5030602;28;20914;-72
2023/01/01 03:06:43;;;;;;;7.68;2.80;;;;;;;16.56;61.51;100776.00;5032549;28;20048;-71
2023/01/01 03:09:23;;;;;;;9.50;2.70;;;;;;;16.52;60.95;100788.91;5031321;28;20049;-72
2023/01/01 03:12:15;;;;;;;8.23;2.75;;;;;;;16.52;60.89;100780.00;5039240;28;20052;-72
2023/01/01 03:14:55;;;;;;;4.97;2.55;;;;;;;16.47;61.37;100780.41;5033210;28;20114;-72
2023/01/01 03:17:34;;;;;;;11.13;2.85;;;;;;;16.27;62.11;100784.84;5028996;28;20103;-71
2023/01/01 03:20:05;;;;;;;6.53;3.47;;;;;;;16.04;62.72;100792.25;5035251;28;20057;-71
2023/01/01 03:22:34;;;;;;;10.70;3.00;;;;;;;16.27;61.75;100789.41;5037659;28;20049;-71
2023/01/01 03:25:02;;;;;;;8.57;2.75;;;;;;;16.28;61.50;100789.25;5039110;28;20057;-72
2023/01/01 03:27:36;;;;;;;8.60;3.28;;;;;;;16.14;62.93;100788.75;5037532;28;20106;-72
2023/01/01 03:30:07;;;;;;;8.88;2.88;;;;;;;16.29;61.66;100776.66;5029982;28;20095;-71
2023/01/01 03:33:06;;;;;;;11.25;2.67;;;;;;;16.29;62.34;100785.56;5049479;28;20042;-71
2023/01/01 03:35:41;;;;;;;9.30;2.78;;;;;;;15.74;63.27;100794.91;5034725;28;20049;-72
2023/01/01 03:38:21;;;;;;;6.07;2.60;;;;;;;15.90;63.52;100778.28;5038059;28;20033;-72
2023/01/01 03:40:52;;;;;;;7.72;2.60;;;;;;;15.73;63.57;100783.28;5039000;28;20490;-72
2023/01/01 03:43:38;;;;;;;8.85;3.15;;;;;;;15.80;63.44;100792.53;5036132;28;20123;-72
2023/01/01 03:46:06;;;;;;;7.28;2.95;;;;;;;15.79;63.76;100792.66;5038994;28;20318;-71
2023/01/01 03:48:54;;;;;;;9.93;3.08;;;;;;;15.59;64.76;100794.34;5030195;28;20569;-72
2023/01/01 03:51:26;;;;;;;7.88;3.58;;;;;;;15.83;63.35;100798.66;5029907;28;20159;-72
2023/01/01 03:53:58;;;;;;;4.50;2.40;;;;;;;16.02;62.17;100796.06;5037530;28;20052;-71
2023/01/01 03:56:44;;;;;;;6.03;3.00;;;;;;;16.00;61.53;100785.41;5034713;28;20091;-73
2023/01/01 03:59:19;;;;;;;8.73;2.63;;;;;;;16.01;61.35;100780.91;5035169;28;20589;-72
2023/01/01 04:01:56;;;;;;;7.28;1.95;;;;;;;16.17;61.07;100788.50;5034454;28;20088;-73
2023/01/01 04:04:23;;;;;;;6.00;2.45;;;;;;;16.26;60.85;100803.81;5035105;28;20068;-72
2023/01/01 04:06:49;;;;;;;15.43;3.53;;;;;;;16.41;60.82;100815.06;5039031;28;20788;-71
2023/01/01 04:09:20;;;;;;;3.97;2.05;;;;;;;16.23;61.04;100810.34;5037250;28;20061;-72
2023/01/01 04:12:05;;;;;;;6.07;2.20;;;;;;;16.42;60.59;100824.88;5028132;28;20049;-72
2023/01/01 04:14:38;;;;;;;10.07;3.17;;;;;;;16.35;60.44;100824.53;5028567;28;20060;-72
2023/01/01 04:17:04;;;;;;;5.35;2.20;;;;;;;16.29;60.24;100820.53;5036733;28;20044;-72
2023/01/01 04:19:31;;;;;;;9.20;2.05;;;;;;;16.21;60.92;100823.03;5034178;28;20049;-72
2023/01/01 04:21:56;;;;;;;5.40;1.85;;;;;;;16.53;60.26;100827.47;5035823;28;20737;-72
2023/01/01 04:24:22;;;;;;;5.93;1.80;;;;;;;16.40;61.18;100813.38;5035055;28;20123;-72
2023/01/01 04:26:49;;;;;;;11.05;2.33;;;;;;;16.35;60.58;100821.00;5036880;28;20044;-72
2023/01/01 04:29:15;;;;;;;8.02;2.20;;;;;;;16.31;61.06;100815.91;5039115;28;20049;-72
2023/01/01 04:31:41;;;;;;;6.85;1.77;;;;;;;16.33;61.03;100820.28;5037882;28;20750;-71
2023/01/01 04:34:06;;;;;;;13.48;2.40;;;;;;;16.45;61.17;100825.44;5027634;28;20037;-71
2023/01/01 04:36:32;;;;;;;7.68;2.40;;;;;;;16.52;60.72;100821.22;5045606;28;20040;-71
2023/01/01 04:38:58;;;;;;;7.35;1.50;;;;;;;16.29;61.63;100803.56;5043212;28;20036;-72
2023/01/01 04:41:23;;;;;;;6.60;1.92;;;;;;;16.13;61.84;100832.78;5037276;28;20587;-72
2023/01/01 04:43:52;;;;;;;16.80;3.15;;;;;;;16.27;61.44;100833.28;5036757;28;20040;-72
2023/01/01 04:46:19;;;;;;;7.38;2.58;;;;;;;16.55;61.11;100831.69;5038918;28;20045;-72
2023/01/01 04:48:45;;;;;;;7.05;1.90;;;;;;;16.36;61.56;100825.38;5032399;28;20041;-71
2023/01/01 04:51:13;;;;;;;5.18;1.83;;;;;;;16.26;61.92;100820.81;5038138;28;20107;-71
2023/01/01 04:53:39;;;;;;;5.20;2.30;;;;;;;16.33;61.88;100826.53;5040992;28;20562;-71
2023/01/01 04:56:17;;;;;;;7.65;1.48;;;;;;;16.38;61.44;100835.03;5031192;28;20061;-71
2023/01/01 04:58:43;;;;;;;7.97;2.00;;;;;;;16.44;61.74;100844.41;5037000;28;20045;-70
2023/01/01 05:01:21;;;;;;;6.00;1.70;;;;;;;16.23;62.41;100839.06;5039901;28;20064;-72
2023/01/01 05:03:47;;;;;;;18.77;2.25;;;;;;;16.49;61.49;100848.41;5037265;28;20040;-71
2023/01/01 05:06:14;;;;;;;13.85;2.95;;;;;;;16.33;62.19;100849.91;5043588;28;20194;-70
2023/01/01 05:08:41;;;;;;;9.07;1.80;;;;;;;16.47;62.07;100850.38;5031452;28;20065;-71
2023/01/01 05:11:15;;;;;;;7.70;2.42;;;;;;;16.39;62.03;100858.28;5039181;28;20041;-71
2023/01/01 05:13:46;;;;;;;9.55;1.80;;;;;;;16.36;61.83;100873.81;5031947;28;20044;-71
2023/01/01 05:16:14;;;;;;;9.82;2.20;;;;;;;16.26;62.12;100868.38;5035362;28;20127;-71
2023/01/01 05:18:40;;;;;;;6.75;2.00;;;;;;;16.47;62.01;100879.16;5035906;28;20041;-71
2023/01/01 05:21:09;;;;;;;10.65;2.22;;;;;;;16.21;62.24;100876.00;5034835;28;20709;-71
2023/01/01 05:23:35;;;;;;;8.10;2.85;;;;;;;16.44;62.23;100887.47;5035233;28;20273;-70
2023/01/01 05:26:09;;;;;;;5.90;1.90;;;;;;;16.53;61.96;100902.84;5033103;28;20180;-71
2023/01/01 05:28:35;;;;;;;6.15;2.03;;;;;;;16.48;62.22;100903.22;5042512;28;20053;-71
2023/01/01 05:31:08;;;;;;;11.60;2.15;;;;;;;16.37;62.95;100906.00;5040330;28;20041;-71
2023/01/01 05:33:34;;;;;;;11.85;2.13;;;;;;;16.46;62.62;100901.66;5041698;28;20059;-71
2023/01/01 05:36:00;;;;;;;10.90;2.85;;;;;;;16.49;62.52;100901.38;5036766;28;20053;-71
2023/01/01 05:38:26;;;;;;;8.20;2.63;;;;;;;16.46;62.61;100909.72;5025633;28;20136;-71
2023/01/01 05:40:51;;;;;;;11.13;2.38;;;;;;;16.34;63.36;100919.72;5045622;28;20703;-71
2023/01/01 05:43:17;;;;;;;5.72;1.92;;;;;;;16.14;66.19;100929.50;5038294;28;20049;-71
2023/01/01 05:45:43;;;;;;;6.25;2.33;;;;;;;16.05;65.66;100932.97;5036159;28;20115;-71
2023/01/01 05:48:09;;;;;;;12.52;2.58;;;;;;;16.11;65.26;100924.38;5039321;28;20052;-71
2023/01/01 05:50:35;;;;;;;10.50;2.47;;;;;;;16.26;64.81;100935.66;5045748;28;20301;-71
2023/01/01 05:53:01;;;;;;;5.63;1.75;;;;;;;16.14;65.55;100928.66;5039172;28;20045;-71
2023/01/01 05:55:26;;;;;;;6.47;2.17;;;;;;;16.31;65.21;100930.75;5036993;28;20593;-71
2023/01/01 05:57:52;;;;;;;4.25;1.80;;;;;;;16.18;66.13;100944.41;5031962;28;20052;-71
2023/01/01 06:00:17;;;;;;;6.32;1.92;;;;;;;16.02;66.31;100952.09;5035282;28;20045;-71
2023/01/01 06:02:43;;;;;;;8.80;2.63;;;;;;;16.20;65.85;100950.50;5037330;28;20784;-71
2023/01/01 06:05:08;;;;;;;12.05;2.00;;;;;;;16.10;66.35;100937.97;5038505;28;20083;-75
2023/01/01 06:07:34;;;;;;;20.48;4.88;;;;;;;16.28;66.13;100939.94;5032836;28;20057;-71
2023/01/01 06:10:01;;;;;;;10.80;2.35;;;;;;;16.02;67.18;100960.16;5035993;28;20050;-70
2023/01/01 06:12:26;;;;;;;12.15;2.17;;;;;;;15.98;66.80;100967.63;5038939;28;20097;-72
2023/01/01 06:14:51;;;;;;;10.05;2.67;;;;;;;15.95;67.08;100967.88;5035616;28;20815;-71
2023/01/01 06:17:17;;;;;;;10.15;2.15;;;;;;;15.97;66.67;100973.13;5037097;28;20041;-71
2023/01/01 06:19:42;;;;;;;12.95;3.60;;;;;;;15.72;67.41;100979.72;5034461;28;20055;-71
2023/01/01 06:22:08;;;;;;;5.72;1.90;;;;;;;15.84;67.18;100986.75;5037908;28;20060;-72
2023/01/01 06:24:33;;;;;;;5.55;1.73;;;;;;;16.02;66.78;101001.34;5026324;28;20046;-71
2023/01/01 06:26:59;;;;;;;14.13;2.42;;;;;;;15.96;67.11;101009.06;5034619;28;20521;-71
2023/01/01 06:29:24;;;;;;;13.95;2.10;;;;;;;16.00;67.20;101022.13;5035246;28;20500;-71
2023/01/01 06:31:50;;;;;;;3.70;1.83;;;;;;;15.95;67.15;101034.25;5040822;28;20568;-71
2023/01/01 06:34:15;;;;;;;6.22;1.80;;;;;;;15.86;68.23;101035.00;5037077;28;20603;-71
2023/01/01 06:36:40;;;;;;;6.82;2.53;;;;;;;15.92;68.36;101034.53;5040914;28;20061;-71
2023/01/01 06:39:06;;;;;;;7.78;1.98;;;;;;;15.95;68.37;101047.69;5033546;28;20052;-71
2023/01/01 06:41:31;;;;;;;14.27;3.28;;;;;;;15.98;68.22;101042.94;5032495;28;20054;-71
2023/01/01 06:43:59;;;;;;;11.10;3.35;;;;;;;16.05;68.75;101041.44;5032526;28;20041;-70
2023/01/01 06:46:26;;;;;;;5.22;2.10;;;;;;;15.64;70.93;101031.41;5038747;28;20218;-71
2023/01/01 06:48:57;;;;;;;5.20;2.72;;;;;;;15.81;70.04;101048.84;5042218;28;20033;-71
2023/01/01 06:51:26;;;;;;;6.40;2.23;;;;;;;15.52;70.69;101045.81;5026628;28;20043;-70
2023/01/01 06:53:52;;;;;;;10.25;3.50;;;;;;;15.82;69.29;101055.09;5040763;28;20130;-70
2023/01/01 06:56:19;;;;;;;8.95;2.92;;;;;;;15.89;69.48;101067.91;5042048;28;20053;-71
2023/01/01 06:58:45;;;;;;;10.90;1.95;;;;;;;15.47;67.06;101065.00;5042119;28;20720;-71
2023/01/01 07:01:14;;;;;;;9.23;1.70;;;;;;;15.40;64.49;101079.91;5035577;28;20554;-72
2023/01/01 07:03:40;;;;;;;2.75;1.33;;;;;;;15.28;63.38;101089.78;5037127;28;20053;-71
2023/01/01 07:06:06;;;;;;;7.18;1.55;;;;;;;15.18;61.39;101096.88;5039764;28;20057;-71
2023/01/01 07:08:32;;;;;;;6.10;1.58;;;;;;;15.25;61.44;101100.78;5040966;28;20055;-70
2023/01/01 07:10:58;;;;;;;21.08;2.30;;;;;;;15.18;61.92;101113.00;5034956;28;20463;-70
2023/01/01 07:13:28;;;;;;;2.70;0.95;;;;;;;15.02;62.52;101124.09;5039896;28;20033;-73
2023/01/01 07:15:54;;;;;;;4.43;1.02;;;;;;;15.11;63.25;101110.88;5033542;28;20045;-73
2023/01/01 07:18:20;;;;;;;4.57;2.00;;;;;;;14.93;64.58;101119.41;5032479;28;20060;-71
2023/01/01 07:21:00;;;;;;;3.55;1.17;;;;;;;14.95;65.21;101127.34;5037385;28;20633;-71
2023/01/01 07:23:28;;;;;;;6.40;1.90;;;;;;;15.11;66.44;101137.75;5025274;28;20061;-71
2023/01/01 07:25:54;;;;;;;6.65;2.45;;;;;;;14.91;67.51;101139.28;5040862;28;20049;-71
2023/01/01 07:28:21;;;;;;;2.88;1.10;;;;;;;15.14;67.96;101142.91;5041022;28;20071;-71
2023/01/01 07:30:47;;;;;;;2.83;1.50;;;;;;;14.99;68.78;101139.56;5027783;28;20390;-72
2023/01/01 07:33:15;;;;;;;5.93;2.00;;;;;;;14.69;69.27;101164.25;5032914;28;20053;-71
2023/01/01 07:35:43;;;;;;;5.00;1.23;;;;;;;14.57;70.67;101173.22;5041235;28;20041;-71
2023/01/01 07:38:09;;;;;;;6.28;1.35;;;;;;;14.50;69.86;101170.13;5034406;28;20053;-71
2023/01/01 07:40:34;;;;;;;7.43;1.10;;;;;;;14.64;69.38;101169.09;5038749;28;20111;-71
2023/01/01 07:43:00;;;;;;;3.35;1.08;;;;;;;14.56;69.09;101176.84;5036371;28;20049;-71
2023/01/01 07:45:25;;;;;;;6.03;2.03;;;;;;;14.35;70.04;101180.13;5041372;28;20178;-71
2023/01/01 07:47:56;;;;;;;5.38;1.00;;;;;;;14.45;71.04;101191.03;5038267;28;20094;-71
2023/01/01 07:50:23;;;;;;;6.25;1.88;;;;;;;14.36;72.55;101195.28;5035111;28;20049;-71
2023/01/01 07:52:49;;;;;;;6.07;1.77;;;;;;;13.99;74.98;101210.50;5032661;28;20378;-72
2023/01/01 07:55:16;;;;;;;5.10;1.52;;;;;;;13.66;78.18;101205.72;5038831;28;20052;-72
2023/01/01 07:57:42;;;;;;;6.00;1.13;;;;;;;13.61;79.90;101205.19;5029106;28;20095;-71
2023/01/01 08:00:10;;;;;;;4.72;1.33;;;;;;;13.66;82.19;101197.69;5022948;28;20045;-71
2023/01/01 08:02:39;;;;;;;6.97;1.63;;;;;;;13.57;83.23;101203.69;5022687;28;20060;-72
2023/01/01 08:05:06;;;;;;;7.75;1.70;;;;;;;13.74;84.32;101214.91;5027964;28;20064;-71
2023/01/01 08:07:32;;;;;;;5.03;1.88;;;;;;;13.34;86.01;101219.53;5036254;28;20049;-71
2023/01/01 08:09:58;;;;;;;6.28;1.00;;;;;;;13.38;86.66;101226.41;5020218;28;20041;-72
2023/01/01 08:12:24;;;;;;;4.10;1.27;;;;;;;13.45;86.57;101234.84;5020164;28;20102;-71
2023/01/01 08:14:50;;;;;;;4.28;1.35;;;;;;;13.60;85.36;101233.78;5028672;28;20120;-72
2023/01/01 08:17:15;;;;;;;5.68;1.50;;;;;;;13.70;84.90;101248.28;5039333;28;20056;-71
2023/01/01 08:19:41;;;;;;;11.10;1.50;;;;;;;13.73;85.73;101258.78;5035503;28;20540;-71
2023/01/01 08:22:06;;;;;;;11.35;2.33;;;;;;;13.64;86.87;101264.78;5032423;28;20057;-71
2023/01/01 08:24:32;;;;;;;9.40;1.95;;;;;;;13.59;86.64;101264.25;5039400;28;20049;-71
2023/01/01 08:26:57;;;;;;;4.13;1.25;;;;;;;13.63;87.25;101257.72;5033987;28;20041;-71
2023/01/01 08:29:22;;;;;;;4.50;1.30;;;;;;;13.64;87.51;101253.19;5037225;28;20409;-71
2023/01/01 08:31:48;;;;;;;11.90;2.28;;;;;;;13.62;87.94;101265.88;5037971;28;20060;-71
2023/01/01 08:34:13;;;;;;;10.80;1.85;;;;;;;13.41;87.92;101269.06;5037476;28;20064;-72
2023/01/01 08:36:42;;;;;;;5.78;1.48;;;;;;;13.56;87.96;101282.38;5031682;28;20045;-72
2023/01/01 08:39:08;;;;;;;3.90;1.80;;;;;;;13.77;87.19;101277.34;5032050;28;20402;-71
2023/01/01 08:41:34;;;;;;;9.00;1.77;;;;;;;13.54;88.84;101273.56;5035335;28;20087;-71
2023/01/01 08:44:00;;;;;;;10.68;2.00;;;;;;;13.54;88.39;101289.63;5033741;28;20040;-71
2023/01/01 08:46:25;;;;;;;4.75;1.60;;;;;;;13.56;89.87;101293.09;5037711;28;20792;-72
2023/01/01 08:48:51;;;;;;;6.93;1.80;;;;;;;14.00;88.74;101285.47;5036716;28;20089;-72
2023/01/01 08:51:17;;;;;;;8.63;2.13;;;;;;;13.79;89.91;101291.47;5036386;28;20041;-71
2023/01/01 08:53:43;;;;;;;6.70;1.90;;;;;;;13.56;91.88;101301.13;5034322;28;20041;-70
2023/01/01 08:56:10;;;;;;;6.50;2.15;;;;;;;13.90;89.90;101294.25;5040468;28;20045;-70
2023/01/01 08:58:38;;;;;;;7.32;2.33;;;;;;;13.40;91.47;101295.94;5040461;28;20057;-71
2023/01/01 09:01:04;;;;;;;6.40;2.10;;;;;;;13.21;94.65;101294.50;5032218;28;20049;-71
2023/01/01 09:03:30;;;;;;;6.50;2.63;;;;;;;13.51;93.85;101290.72;5039948;28;20474;-71
2023/01/01 09:05:56;;;;;;;6.88;2.45;;;;;;;13.72;92.48;101296.41;5031841;28;20051;-72
2023/01/01 09:08:21;;;;;;;6.32;2.00;;;;;;;13.27;94.53;101292.38;5026646;28;20045;-71
2023/01/01 09:10:47;;;;;;;13.60;3.42;;;;;;;13.97;91.57;101295.56;5036760;28;20049;-71
2023/01/01 09:13:16;;;;;;;10.57;2.47;;;;;;;13.54;93.94;101286.97;5036334;28;20087;-72
2023/01/01 09:15:42;;;;;;;9.60;2.97;;;;;;;13.56;93.20;101298.44;5037960;28;20591;-71
2023/01/01 09:18:08;;;;;;;8.45;3.22;;;;;;;13.95;91.77;101303.69;5038107;28;20037;-71
2023/01/01 09:20:34;;;;;;;10.63;2.50;;;;;;;13.73;92.89;101320.44;5039451;28;20055;-71
2023/01/01 09:23:00;;;;;;;6.40;2.58;;;;;;;13.80;92.78;101314.63;5043688;28;20040;-70
2023/01/01 09:25:25;;;;;;;11.77;3.55;;;;;;;13.75;91.83;101317.63;5043344;28;20049;-71
2023/01/01 09:27:59;;;;;;;11.00;2.15;;;;;;;13.82;91.28;101313.59;5036673;28;20045;-71
2023/01/01 09:30:25;;;;;;;4.53;1.75;;;;;;;13.98;90.37;101308.84;5039985;28;20103;-71
2023/01/01 09:32:51;;;;;;;12.95;2.65;;;;;;;13.90;90.78;101318.38;5041012;28;20079;-71
2023/01/01 09:35:17;;;;;;;6.60;1.65;;;;;;;13.94;90.07;101331.47;5036509;28;20072;-72
2023/01/01 09:37:42;;;;;;;13.27;2.30;;;;;;;13.88;89.01;101328.38;5040308;28;20092;-70
2023/01/01 09:40:31;;;;;;;7.88;1.63;;;;;;;13.83;90.02;101330.53;5036854;28;20051;-71
2023/01/01 09:43:12;;;;;;;12.77;2.00;;;;;;;14.09;88.32;101336.75;5037391;28;20041;-72
2023/01/01 09:45:50;;;;;;;9.20;2.15;;;;;;;14.10;88.28;101339.31;5034830;28;20048;-71
2023/01/01 09:48:16;;;;;;;10.90;2.08;;;;;;;14.00;88.26;101335.56;5038147;28;20056;-70
2023/01/01 09:50:44;;;;;;;5.90;1.85;;;;;;;14.39;86.27;101331.03;5041717;28;20118;-70
2023/01/01 09:53:42;;;;;;;6.72;1.75;;;;;;;14.35;86.60;101334.88;5048650;28;20635;-71
2023/01/01 09:56:16;;;;;;;8.35;2.55;;;;;;;14.29;88.03;101336.19;5007482;28;20059;-71
2023/01/01 09:58:42;;;;;;;11.40;2.20;;;;;;;14.33;87.13;101339.53;5040215;28;20164;-71
2023/01/01 10:01:32;;;;;;;9.25;2.00;;;;;;;14.63;86.21;101331.13;5036347;28;20067;-71
2023/01/01 10:04:17;;;;;;;9.20;1.70;;;;;;;14.31;88.92;101341.44;5033158;28;20148;-71
2023/01/01 10:06:51;;;;;;;8.70;3.08;;;;;;;14.17;90.84;101340.59;5035987;28;20138;-71
2023/01/01 10:09:33;;;;;;;7.85;2.30;;;;;;;14.17;92.71;101351.34;5036952;28;20045;-71
2023/01/01 10:12:04;;;;;;;13.82;2.28;;;;;;;13.93;94.22;101345.00;5038774;28;20041;-71
2023/01/01 10:14:38;;;;;;;6.57;1.83;;;;;;;14.14;95.31;101362.28;5037264;28;20071;-70
2023/01/01 10:17:29;;;;;;;10.32;2.38;;;;;;;14.29;93.98;101364.84;5039644;28;20132;-71
2023/01/01 10:20:02;;;;;;;13.00;3.47;;;;;;;14.08;96.05;101359.16;5033077;28;20041;-71
2023/01/01 10:22:39;;;;;;;10.57;2.78;;;;;;;13.90;98.89;101355.94;5042338;28;20078;-71
2023/01/01 10:25:16;;;;;;;12.07;3.50;;;;;;;13.50;100.00;101350.59;5039874;28;20068;-71
2023/01/01 10:27:58;;;;;;;7.53;2.75;;;;;;;13.70;100.00;101344.78;5041054;28;20049;-71
2023/01/01 10:30:24;;;;;;;9.38;2.90;;;;;;;13.63;100.00;101347.97;5037927;28;20053;-71
2023/01/01 10:32:52;;;;;;;13.60;3.30;;;;;;;13.57;100.00;101353.75;5039225;28;20041;-71
2023/01/01 10:35:29;;;;;;;15.13;3.28;;;;;;;13.38;100.00;101359.47;5037003;28;20095;-70
2023/01/01 10:37:55;;;;;;;6.50;1.90;;;;;;;13.25;100.00;101355.88;5039328;28;20048;-71
2023/01/01 10:40:25;;;;;;;12.82;2.25;;;;;;;13.21;100.00;101355.22;5041354;28;20501;-71
2023/01/01 10:42:53;;;;;;;8.25;1.80;;;;;;;12.96;100.00;101355.97;5038437;28;20088;-71
2023/01/01 10:45:35;;;;;;;10.57;2.30;;;;;;;13.25;100.00;101359.41;5041437;28;20045;-74
2023/01/01 10:48:12;;;;;;;6.35;2.08;;;;;;;13.20;100.00;101356.16;5040315;28;20049;-71
2023/01/01 10:50:44;;;;;;;10.55;2.47;;;;;;;13.45;100.00;101353.63;5043269;28;20045;-71
2023/01/01 10:53:23;;;;;;;4.07;1.83;;;;;;;13.38;100.00;101352.31;5033317;28;20049;-70
2023/01/01 10:55:56;;;;;;;12.45;2.80;;;;;;;13.27;100.00;101352.16;5033552;28;20069;-71
2023/01/01 10:58:41;;;;;;;16.98;2.35;;;;;;;13.21;100.00;101347.19;5033689;28;20041;-71
2023/01/01 11:01:33;;;;;;;7.95;1.90;;;;;;;13.22;100.00;101354.28;5035400;28;20061;-72
2023/01/01 11:04:07;;;;;;;12.05;2.08;;;;;;;13.02;100.00;101347.53;5038901;28;20041;-71
2023/01/01 11:06:40;;;;;;;7.35;2.40;;;;;;;13.50;100.00;101355.09;5041355;28;20051;-71
2023/01/01 11:09:38;;;;;;;5.97;1.73;;;;;;;14.38;100.00;101354.31;5032310;28;20076;-71
2023/01/01 11:12:07;;;;;;;8.00;2.08;;;;;;;14.12;100.00;101364.22;4993249;28;20126;-72
2023/01/01 11:14:37;;;;;;;7.90;2.20;;;;;;;14.46;100.00;101364.53;5021429;28;20042;-71
2023/01/01 11:17:03;;;;;;;8.73;2.08;;;;;;;14.73;98.12;101373.28;5037672;28;20044;-72
2023/01/01 11:19:35;;;;;;;9.35;2.65;;;;;;;15.01;98.43;101374.84;5037715;28;20051;-72
2023/01/01 11:22:02;;;;;;;8.70;1.92;;;;;;;14.87;97.65;101371.44;5037422;28;20554;-71
2023/01/01 11:24:32;;;;;;;17.13;3.25;;;;;;;14.72;98.42;101363.53;5032584;28;20049;-71
2023/01/01 11:27:18;;;;;;;6.90;1.90;;;;;;;15.11;96.54;101385.78;5035555;28;20042;-71
2023/01/01 11:29:43;;;;;;;14.73;2.65;;;;;;;14.96;97.26;101390.44;5029157;28;20053;-71
2023/01/01 11:32:20;;;;;;;8.18;2.80;;;;;;;14.49;100.00;101402.75;5040339;28;20044;-72
2023/01/01 11:34:56;;;;;;;10.35;3.05;;;;;;;14.74;100.00;101401.84;5040206;28;20048;-72
2023/01/01 11:37:32;;;;;;;7.70;3.13;;;;;;;14.64;100.00;101390.06;5035477;28;20098;-72